createdAt,value
2017-01-30T00:00:58.265Z,1016.8
2017-01-30T00:03:30.657Z,1016.7
2017-01-30T00:06:03.504Z,1016.7
2017-01-30T00:08:35.894Z,1016.7
2017-01-30T00:11:08.282Z,1016.7
2017-01-30T00:13:41.140Z,1016.7
2017-01-30T00:16:13.531Z,1016.7
2017-01-30T00:18:45.926Z,1016.7
2017-01-30T00:21:19.167Z,1016.6
2017-01-30T00:23:51.979Z,1016.6
2017-01-30T00:26:24.375Z,1016.6
2017-01-30T00:28:56.751Z,1016.6
2017-01-30T00:31:29.136Z,1016.5
2017-01-30T00:34:01.968Z,1016.5
2017-01-30T00:36:34.357Z,1016.5
2017-01-30T00:39:07.164Z,1016.5
2017-01-30T00:41:39.546Z,1016.5
2017-01-30T00:44:11.948Z,1016.4
2017-01-30T00:46:44.751Z,1016.4
2017-01-30T00:49:17.602Z,1016.4
2017-01-30T00:51:49.977Z,1016.4
2017-01-30T00:54:22.394Z,1016.3
2017-01-30T00:56:55.808Z,1016.3
2017-01-30T00:59:28.625Z,1016.3
2017-01-30T01:02:01.448Z,1016.3
2017-01-30T01:04:34.294Z,1016.3
2017-01-30T01:07:07.100Z,1016.3
2017-01-30T01:09:40.352Z,1016.2
2017-01-30T01:12:12.741Z,1016.2
2017-01-30T01:14:45.555Z,1016.2
2017-01-30T01:17:17.957Z,1016.2
2017-01-30T01:19:50.781Z,1016.2
2017-01-30T01:22:23.195Z,1016.2
2017-01-30T01:24:55.564Z,1016.2
2017-01-30T01:27:27.955Z,1016.1
2017-01-30T01:30:00.346Z,1016.1
2017-01-30T01:32:33.583Z,1016.1
2017-01-30T01:35:06.375Z,1016.1
2017-01-30T01:37:39.187Z,1016.1
2017-01-30T01:40:11.586Z,1016.1
2017-01-30T01:42:44.411Z,1016.1
2017-01-30T01:45:16.806Z,1016
2017-01-30T01:47:49.192Z,1016
2017-01-30T01:50:22.038Z,1016
2017-01-30T01:52:54.445Z,1016
2017-01-30T01:55:26.822Z,1016
2017-01-30T01:57:59.226Z,1015.9
2017-01-30T02:00:31.599Z,1015.9
2017-01-30T02:03:04.433Z,1015.9
2017-01-30T02:05:36.859Z,1015.9
2017-01-30T02:08:09.250Z,1015.8
2017-01-30T02:10:41.613Z,1015.8
2017-01-30T02:13:14.005Z,1015.8
2017-01-30T02:15:46.386Z,1015.8
2017-01-30T02:18:18.782Z,1015.8
2017-01-30T02:20:51.183Z,1015.8
2017-01-30T02:23:23.594Z,1015.7
2017-01-30T02:25:55.984Z,1015.7
2017-01-30T02:28:28.358Z,1015.7
2017-01-30T02:31:00.754Z,1015.7
2017-01-30T02:33:33.575Z,1015.7
2017-01-30T02:36:06.384Z,1015.7
2017-01-30T02:38:38.800Z,1015.6
2017-01-30T02:41:11.186Z,1015.6
2017-01-30T02:43:43.578Z,1015.6
2017-01-30T02:46:15.960Z,1015.6
2017-01-30T02:48:48.359Z,1015.6
2017-01-30T02:51:21.189Z,1015.5
2017-01-30T02:53:53.567Z,1015.5
2017-01-30T02:56:25.978Z,1015.5
2017-01-30T02:58:58.357Z,1015.5
2017-01-30T03:01:31.611Z,1015.5
2017-01-30T03:04:03.991Z,1015.5
2017-01-30T03:06:36.799Z,1015.4
2017-01-30T03:09:09.193Z,1015.4
2017-01-30T03:11:41.602Z,1015.4
2017-01-30T03:14:14.003Z,1015.4
2017-01-30T03:16:46.383Z,1015.4
2017-01-30T03:19:18.762Z,1015.3
2017-01-30T03:21:51.168Z,1015.3
2017-01-30T03:24:23.987Z,1015.3
2017-01-30T03:26:56.376Z,1015.3
2017-01-30T03:29:28.814Z,1015.3
2017-01-30T03:32:01.210Z,1015.3
2017-01-30T03:34:33.637Z,1015.2
2017-01-30T03:37:06.441Z,1015.2
2017-01-30T03:39:38.831Z,1015.2
2017-01-30T03:42:11.220Z,1015.2
2017-01-30T03:44:43.630Z,1015.2
2017-01-30T03:47:16.876Z,1015.2
2017-01-30T03:49:49.258Z,1015.2
2017-01-30T03:52:21.644Z,1015.2
2017-01-30T03:54:54.026Z,1015.2
2017-01-30T03:57:26.427Z,1015.2
2017-01-30T03:59:59.239Z,1015.1
2017-01-30T04:02:31.637Z,1015.1
2017-01-30T04:05:04.458Z,1015.1
2017-01-30T04:07:37.290Z,1015.1
2017-01-30T04:10:09.682Z,1015.1
2017-01-30T04:12:42.525Z,1015.1
2017-01-30T04:15:14.907Z,1015.1
2017-01-30T04:17:47.703Z,1015
2017-01-30T04:20:20.087Z,1015
2017-01-30T04:22:52.685Z,1015
2017-01-30T04:25:25.497Z,1015
2017-01-30T04:27:57.903Z,1015
2017-01-30T04:30:30.714Z,1014.9
2017-01-30T04:33:03.108Z,1014.9
2017-01-30T04:35:35.929Z,1014.9
2017-01-30T04:38:08.326Z,1014.9
2017-01-30T04:40:40.705Z,1014.8
2017-01-30T04:43:13.092Z,1014.8
2017-01-30T04:45:45.919Z,1014.8
2017-01-30T04:48:18.304Z,1014.7
2017-01-30T04:50:51.155Z,1014.7
2017-01-30T04:53:23.540Z,1014.7
2017-01-30T04:55:55.966Z,1014.6
2017-01-30T04:58:29.202Z,1014.6
2017-01-30T05:01:02.044Z,1014.5
2017-01-30T05:03:34.467Z,1014.5
2017-01-30T05:06:06.846Z,1014.5
2017-01-30T05:08:39.232Z,1014.4
2017-01-30T05:11:12.027Z,1014.4
2017-01-30T05:13:44.447Z,1014.4
2017-01-30T05:16:16.868Z,1014.3
2017-01-30T05:18:49.250Z,1014.3
2017-01-30T05:21:21.628Z,1014.3
2017-01-30T05:23:54.432Z,1014.3
2017-01-30T05:26:26.828Z,1014.2
2017-01-30T05:28:59.224Z,1014.2
2017-01-30T05:31:32.049Z,1014.2
2017-01-30T05:34:04.846Z,1014.2
2017-01-30T05:36:37.665Z,1014.2
2017-01-30T05:39:10.469Z,1014.2
2017-01-30T05:41:43.283Z,1014.2
2017-01-30T05:44:15.686Z,1014.2
2017-01-30T05:46:48.080Z,1014.2
2017-01-30T05:49:20.468Z,1014.1
2017-01-30T05:51:52.866Z,1014.1
2017-01-30T05:54:25.263Z,1014.1
2017-01-30T05:56:57.632Z,1014.1
2017-01-30T05:59:30.031Z,1014.1
2017-01-30T06:02:02.409Z,1014.1
2017-01-30T06:04:35.313Z,1014.1
2017-01-30T06:07:07.689Z,1014.1
2017-01-30T06:09:40.083Z,1014.1
2017-01-30T06:12:12.943Z,1014
2017-01-30T06:14:45.347Z,1014
2017-01-30T06:17:17.738Z,1014
2017-01-30T06:19:50.117Z,1014
2017-01-30T06:22:22.525Z,1014
2017-01-30T06:24:55.337Z,1014
2017-01-30T06:27:27.835Z,1014
2017-01-30T06:30:00.671Z,1014
2017-01-30T06:32:33.070Z,1013.9
2017-01-30T06:35:06.315Z,1013.9
2017-01-30T06:37:39.136Z,1013.9
2017-01-30T06:40:11.999Z,1013.9
2017-01-30T06:42:44.396Z,1013.9
2017-01-30T06:45:16.789Z,1013.8
2017-01-30T06:47:49.612Z,1013.8
2017-01-30T06:50:22.882Z,1013.8
2017-01-30T06:52:55.284Z,1013.8
2017-01-30T06:55:28.108Z,1013.7
2017-01-30T06:58:00.509Z,1013.7
2017-01-30T07:00:32.894Z,1013.7
2017-01-30T07:03:05.721Z,1013.6
2017-01-30T07:05:38.550Z,1013.6
2017-01-30T07:08:10.957Z,1013.6
2017-01-30T07:10:43.348Z,1013.5
2017-01-30T07:13:15.727Z,1013.5
2017-01-30T07:15:48.119Z,1013.4
2017-01-30T07:18:20.944Z,1013.4
2017-01-30T07:20:53.336Z,1013.4
2017-01-30T07:23:25.714Z,1013.3
2017-01-30T07:25:58.096Z,1013.3
2017-01-30T07:28:30.493Z,1013.3
2017-01-30T07:31:03.311Z,1013.2
2017-01-30T07:33:35.738Z,1013.2
2017-01-30T07:36:08.531Z,1013.2
2017-01-30T07:38:41.371Z,1013.1
2017-01-30T07:41:14.176Z,1013.1
2017-01-30T07:43:47.857Z,1013.1
2017-01-30T07:46:21.939Z,1013
2017-01-30T07:48:54.528Z,1013
2017-01-30T07:51:27.356Z,1013
2017-01-30T07:53:59.761Z,1012.9
2017-01-30T07:56:32.201Z,1012.9
2017-01-30T07:59:04.599Z,1012.9
2017-01-30T08:01:36.988Z,1012.9
2017-01-30T08:04:09.377Z,1012.8
2017-01-30T08:06:41.763Z,1012.8
2017-01-30T08:09:14.149Z,1012.8
2017-01-30T08:11:46.536Z,1012.8
2017-01-30T08:14:18.945Z,1012.7
2017-01-30T08:16:51.323Z,1012.7
2017-01-30T08:19:23.713Z,1012.7
2017-01-30T08:21:56.111Z,1012.7
2017-01-30T08:24:28.940Z,1012.6
2017-01-30T08:27:01.335Z,1012.6
2017-01-30T08:29:33.722Z,1012.6
2017-01-30T08:32:06.101Z,1012.5
2017-01-30T08:34:38.510Z,1012.5
2017-01-30T08:37:11.754Z,1012.5
2017-01-30T08:39:44.600Z,1012.5
2017-01-30T08:42:17.413Z,1012.4
2017-01-30T08:44:50.270Z,1012.4
2017-01-30T08:47:22.662Z,1012.4
2017-01-30T08:49:55.298Z,1012.4
2017-01-30T08:52:28.135Z,1012.4
2017-01-30T08:55:00.508Z,1012.3
2017-01-30T08:57:32.919Z,1012.3
2017-01-30T09:00:05.504Z,1012.3
2017-01-30T09:02:38.336Z,1012.2
2017-01-30T09:05:11.173Z,1012.2
2017-01-30T09:07:43.573Z,1012.2
2017-01-30T09:10:15.985Z,1012.1
2017-01-30T09:12:48.788Z,1012.1
2017-01-30T09:15:21.177Z,1012.1
2017-01-30T09:17:53.564Z,1012
2017-01-30T09:20:26.356Z,1012
2017-01-30T09:22:59.203Z,1012
2017-01-30T09:25:31.598Z,1012
2017-01-30T09:28:04.420Z,1011.9
2017-01-30T09:30:37.250Z,1011.9
2017-01-30T09:33:09.650Z,1011.9
2017-01-30T09:35:42.055Z,1011.9
2017-01-30T09:38:14.473Z,1011.8
2017-01-30T09:40:46.861Z,1011.8
2017-01-30T09:43:19.277Z,1011.8
2017-01-30T09:45:52.529Z,1011.8
2017-01-30T09:48:24.903Z,1011.8
2017-01-30T09:50:57.307Z,1011.7
2017-01-30T09:53:29.701Z,1011.7
2017-01-30T09:56:02.513Z,1011.7
2017-01-30T09:58:34.896Z,1011.7
2017-01-30T10:01:07.306Z,1011.6
2017-01-30T10:03:39.706Z,1011.6
2017-01-30T10:06:12.531Z,1011.6
2017-01-30T10:08:44.910Z,1011.6
2017-01-30T10:11:18.153Z,1011.6
2017-01-30T10:13:50.986Z,1011.6
2017-01-30T10:16:23.391Z,1011.6
2017-01-30T10:18:55.780Z,1011.5
2017-01-30T10:21:28.610Z,1011.5
2017-01-30T10:24:01.019Z,1011.5
2017-01-30T10:26:33.414Z,1011.5
2017-01-30T10:29:05.818Z,1011.5
2017-01-30T10:31:38.206Z,1011.4
2017-01-30T10:34:11.021Z,1011.4
2017-01-30T10:36:43.422Z,1011.4
2017-01-30T10:39:16.665Z,1011.3
2017-01-30T10:41:49.081Z,1011.3
2017-01-30T10:44:21.888Z,1011.2
2017-01-30T10:46:54.717Z,1011.2
2017-01-30T10:49:27.109Z,1011.2
2017-01-30T10:51:59.492Z,1011.1
2017-01-30T10:54:32.323Z,1011.1
2017-01-30T10:57:04.742Z,1011.1
2017-01-30T10:59:37.135Z,1011
2017-01-30T11:02:09.523Z,1011
2017-01-30T11:04:41.933Z,1010.9
2017-01-30T11:07:14.317Z,1010.9
2017-01-30T11:09:47.568Z,1010.9
2017-01-30T11:12:19.942Z,1010.8
2017-01-30T11:14:52.334Z,1010.8
2017-01-30T11:17:24.716Z,1010.8
2017-01-30T11:19:57.127Z,1010.7
2017-01-30T11:22:29.946Z,1010.7
2017-01-30T11:25:02.327Z,1010.7
2017-01-30T11:27:34.695Z,1010.6
2017-01-30T11:30:07.083Z,1010.6
2017-01-30T11:32:39.480Z,1010.6
2017-01-30T11:35:11.872Z,1010.5
2017-01-30T11:37:44.257Z,1010.5
2017-01-30T11:40:16.657Z,1010.5
2017-01-30T11:42:49.047Z,1010.4
2017-01-30T11:45:21.441Z,1010.4
2017-01-30T11:47:53.826Z,1010.3
2017-01-30T11:50:26.220Z,1010.3
2017-01-30T11:52:58.620Z,1010.3
2017-01-30T11:55:31.019Z,1010.2
2017-01-30T11:58:03.849Z,1010.2
2017-01-30T12:00:36.245Z,1010.2
2017-01-30T12:03:09.078Z,1010.1
2017-01-30T12:05:41.483Z,1010.1
2017-01-30T12:08:13.876Z,1010.1
2017-01-30T12:10:46.258Z,1010
2017-01-30T12:13:19.074Z,1010
2017-01-30T12:15:52.321Z,1009.9
2017-01-30T12:18:24.709Z,1009.9
2017-01-30T12:20:57.101Z,1009.9
2017-01-30T12:23:29.928Z,1009.8
2017-01-30T12:26:02.320Z,1009.8
2017-01-30T12:28:35.124Z,1009.8
2017-01-30T12:31:07.521Z,1009.7
2017-01-30T12:33:39.932Z,1009.7
2017-01-30T12:36:12.323Z,1009.7
2017-01-30T12:38:44.735Z,1009.6
2017-01-30T12:41:17.127Z,1009.6
2017-01-30T12:43:49.964Z,1009.6
2017-01-30T12:46:22.354Z,1009.5
2017-01-30T12:48:54.740Z,1009.5
2017-01-30T12:51:27.148Z,1009.5
2017-01-30T12:53:59.547Z,1009.4
2017-01-30T12:56:32.361Z,1009.4
2017-01-30T12:59:04.763Z,1009.4
2017-01-30T13:01:37.144Z,1009.3
2017-01-30T13:04:09.541Z,1009.3
2017-01-30T13:06:41.938Z,1009.3
2017-01-30T13:09:14.755Z,1009.2
2017-01-30T13:11:47.165Z,1009.2
2017-01-30T13:14:19.548Z,1009.1
2017-01-30T13:16:52.389Z,1009.1
2017-01-30T13:19:25.212Z,1009.1
2017-01-30T13:21:58.049Z,1009
2017-01-30T13:24:30.448Z,1009
2017-01-30T13:27:03.294Z,1009
2017-01-30T13:29:36.118Z,1008.9
2017-01-30T13:32:08.542Z,1008.9
2017-01-30T13:34:40.993Z,1008.9
2017-01-30T13:37:13.388Z,1008.9
2017-01-30T13:39:46.211Z,1008.8
2017-01-30T13:42:18.697Z,1008.8
2017-01-30T13:44:51.187Z,1008.8
2017-01-30T13:47:23.622Z,1008.7
2017-01-30T13:49:56.565Z,1008.7
2017-01-30T13:52:28.973Z,1008.7
2017-01-30T13:55:02.346Z,1008.7
2017-01-30T13:57:35.606Z,1008.6
2017-01-30T14:00:08.435Z,1008.6
2017-01-30T14:02:40.819Z,1008.6
2017-01-30T14:05:13.226Z,1008.6
2017-01-30T14:07:46.051Z,1008.6
2017-01-30T14:10:19.061Z,1008.6
2017-01-30T14:12:51.463Z,1008.5
2017-01-30T14:15:23.868Z,1008.5
2017-01-30T14:17:56.279Z,1008.5
2017-01-30T14:20:28.678Z,1008.5
2017-01-30T14:23:01.265Z,1008.5
2017-01-30T14:25:34.097Z,1008.5
2017-01-30T14:28:06.505Z,1008.5
2017-01-30T14:30:38.890Z,1008.4
2017-01-30T14:33:11.276Z,1008.4
2017-01-30T14:35:44.096Z,1008.4
2017-01-30T14:38:16.503Z,1008.4
2017-01-30T14:40:48.890Z,1008.4
2017-01-30T14:43:21.709Z,1008.4
2017-01-30T14:45:54.527Z,1008.3
2017-01-30T14:48:26.932Z,1008.3
2017-01-30T14:50:59.733Z,1008.3
2017-01-30T14:53:32.542Z,1008.3
2017-01-30T14:56:05.354Z,1008.3
2017-01-30T14:58:37.729Z,1008.3
2017-01-30T15:01:10.125Z,1008.3
2017-01-30T15:03:42.525Z,1008.3
2017-01-30T15:06:15.356Z,1008.3
2017-01-30T15:08:47.738Z,1008.2
2017-01-30T15:11:20.123Z,1008.2
2017-01-30T15:13:52.523Z,1008.2
2017-01-30T15:16:24.931Z,1008.2
2017-01-30T15:18:57.340Z,1008.2
2017-01-30T15:21:29.704Z,1008.2
2017-01-30T15:24:03.125Z,1008.2
2017-01-30T15:26:35.502Z,1008.1
2017-01-30T15:29:07.909Z,1008.1
2017-01-30T15:31:40.309Z,1008.1
2017-01-30T15:34:13.548Z,1008.1
2017-01-30T15:36:46.369Z,1008.1
2017-01-30T15:39:19.796Z,1008.1
2017-01-30T15:41:52.205Z,1008.1
2017-01-30T15:44:25.025Z,1008.1
2017-01-30T15:46:57.434Z,1008
2017-01-30T15:49:29.811Z,1008
2017-01-30T15:52:02.219Z,1008
2017-01-30T15:54:35.034Z,1008
2017-01-30T15:57:07.427Z,1008
2017-01-30T15:59:39.817Z,1008
2017-01-30T16:02:12.233Z,1008
2017-01-30T16:04:44.635Z,1008
2017-01-30T16:07:17.031Z,1008
2017-01-30T16:09:49.841Z,1007.9
2017-01-30T16:12:22.236Z,1007.9
2017-01-30T16:14:54.636Z,1007.9
2017-01-30T16:17:27.497Z,1007.9
2017-01-30T16:19:59.898Z,1007.9
2017-01-30T16:22:32.301Z,1007.9
2017-01-30T16:25:04.690Z,1007.9
2017-01-30T16:27:37.513Z,1007.9
2017-01-30T16:30:09.882Z,1007.9
2017-01-30T16:32:42.909Z,1007.9
2017-01-30T16:35:15.318Z,1007.8
2017-01-30T16:37:48.119Z,1007.8
2017-01-30T16:40:20.932Z,1007.8
2017-01-30T16:42:54.191Z,1007.8
2017-01-30T16:45:27.017Z,1007.8
2017-01-30T16:47:59.395Z,1007.8
2017-01-30T16:50:32.210Z,1007.8
2017-01-30T16:53:04.614Z,1007.8
2017-01-30T16:55:37.013Z,1007.8
2017-01-30T16:58:09.389Z,1007.8
2017-01-30T17:00:41.784Z,1007.8
2017-01-30T17:03:14.828Z,1007.8
2017-01-30T17:05:47.654Z,1007.8
2017-01-30T17:08:20.462Z,1007.8
2017-01-30T17:10:53.270Z,1007.8
2017-01-30T17:13:25.659Z,1007.8
2017-01-30T17:15:58.465Z,1007.8
2017-01-30T17:18:30.882Z,1007.8
2017-01-30T17:21:03.283Z,1007.8
2017-01-30T17:23:35.691Z,1007.8
2017-01-30T17:26:08.077Z,1007.8
2017-01-30T17:28:40.473Z,1007.8
2017-01-30T17:31:13.295Z,1007.8
2017-01-30T17:33:46.108Z,1007.8
2017-01-30T17:36:18.927Z,1007.8
2017-01-30T17:38:51.313Z,1007.8
2017-01-30T17:41:23.693Z,1007.8
2017-01-30T17:43:56.082Z,1007.8
2017-01-30T17:46:28.470Z,1007.8
2017-01-30T17:49:00.865Z,1007.8
2017-01-30T17:51:33.691Z,1007.8
2017-01-30T17:54:06.076Z,1007.8
2017-01-30T17:56:38.909Z,1007.8
2017-01-30T17:59:11.309Z,1007.8
2017-01-30T18:01:44.563Z,1007.8
2017-01-30T18:04:17.363Z,1007.8
2017-01-30T18:06:50.186Z,1007.8
2017-01-30T18:09:22.586Z,1007.9
2017-01-30T18:11:55.386Z,1007.9
2017-01-30T18:14:27.782Z,1007.9
2017-01-30T18:17:00.181Z,1007.9
2017-01-30T18:19:32.608Z,1007.9
2017-01-30T18:22:05.005Z,1007.9
2017-01-30T18:24:37.401Z,1007.9
2017-01-30T18:27:09.791Z,1007.9
2017-01-30T18:29:42.618Z,1007.9
2017-01-30T18:32:14.995Z,1007.9
2017-01-30T18:34:47.384Z,1007.9
2017-01-30T18:37:19.798Z,1008
2017-01-30T18:39:52.818Z,1008
2017-01-30T18:42:25.219Z,1008
2017-01-30T18:44:58.038Z,1008
2017-01-30T18:47:30.417Z,1008
2017-01-30T18:50:03.671Z,1008
2017-01-30T18:52:36.060Z,1008
2017-01-30T18:55:08.481Z,1008
2017-01-30T18:57:41.726Z,1008
2017-01-30T19:00:14.955Z,1008
2017-01-30T19:02:47.763Z,1008
2017-01-30T19:05:20.573Z,1008.1
2017-01-30T19:07:53.395Z,1008.1
2017-01-30T19:10:25.787Z,1008.1
2017-01-30T19:12:58.584Z,1008.1
2017-01-30T19:15:31.434Z,1008.1
2017-01-30T19:18:04.251Z,1008.1
2017-01-30T19:20:36.649Z,1008.1
2017-01-30T19:23:09.020Z,1008.1
2017-01-30T19:25:41.429Z,1008.1
2017-01-30T19:28:13.806Z,1008.1
2017-01-30T19:30:46.191Z,1008.1
2017-01-30T19:33:18.588Z,1008.1
2017-01-30T19:35:50.988Z,1008.1
2017-01-30T19:38:23.386Z,1008
2017-01-30T19:40:55.768Z,1008
2017-01-30T19:43:28.579Z,1008
2017-01-30T19:46:00.968Z,1008
2017-01-30T19:48:33.390Z,1008
2017-01-30T19:51:06.395Z,1008
2017-01-30T19:53:38.767Z,1008
2017-01-30T19:56:11.166Z,1008
2017-01-30T19:58:43.992Z,1008
2017-01-30T20:01:16.834Z,1008
2017-01-30T20:03:49.236Z,1008
2017-01-30T20:06:21.646Z,1008
2017-01-30T20:08:54.465Z,1008
2017-01-30T20:11:26.844Z,1008
2017-01-30T20:14:00.293Z,1008
2017-01-30T20:16:32.676Z,1008
2017-01-30T20:19:05.483Z,1008
2017-01-30T20:21:37.869Z,1008.1
2017-01-30T20:24:10.279Z,1008.1
2017-01-30T20:26:43.104Z,1008.1
2017-01-30T20:29:15.469Z,1008.1
2017-01-30T20:31:48.920Z,1008.1
2017-01-30T20:34:22.563Z,1008.1
2017-01-30T20:36:55.803Z,1008.1
2017-01-30T20:39:28.191Z,1008.1
2017-01-30T20:42:01.010Z,1008.1
2017-01-30T20:44:33.409Z,1008.1
2017-01-30T20:47:06.225Z,1008.1
2017-01-30T20:49:39.020Z,1008.1
2017-01-30T20:52:11.409Z,1008.1
2017-01-30T20:54:43.799Z,1008.1
2017-01-30T20:57:16.197Z,1008.1
2017-01-30T20:59:49.433Z,1008.1
2017-01-30T21:02:21.811Z,1008.1
2017-01-30T21:04:54.192Z,1008.1
2017-01-30T21:07:26.572Z,1008.1
2017-01-30T21:09:59.012Z,1008.1
2017-01-30T21:12:31.406Z,1008.1
2017-01-30T21:15:03.808Z,1008.1
2017-01-30T21:17:36.192Z,1008.1
2017-01-30T21:20:08.575Z,1008.1
2017-01-30T21:22:40.982Z,1008.1
2017-01-30T21:25:13.380Z,1008.1
2017-01-30T21:27:46.198Z,1008.1
2017-01-30T21:30:19.444Z,1008.2
2017-01-30T21:32:52.245Z,1008.2
2017-01-30T21:35:25.063Z,1008.2
2017-01-30T21:37:57.467Z,1008.2
2017-01-30T21:40:30.277Z,1008.2
2017-01-30T21:43:03.082Z,1008.2
2017-01-30T21:45:35.469Z,1008.2
2017-01-30T21:48:08.272Z,1008.2
2017-01-30T21:50:40.671Z,1008.2
2017-01-30T21:53:13.269Z,1008.2
2017-01-30T21:55:45.656Z,1008.2
2017-01-30T21:58:18.453Z,1008.2
2017-01-30T22:00:50.853Z,1008.2
2017-01-30T22:03:23.664Z,1008.2
2017-01-30T22:05:56.076Z,1008.3
2017-01-30T22:08:29.294Z,1008.3
2017-01-30T22:11:01.694Z,1008.3
2017-01-30T22:13:34.073Z,1008.3
2017-01-30T22:16:06.474Z,1008.3
2017-01-30T22:18:39.467Z,1008.3
2017-01-30T22:21:11.863Z,1008.3
2017-01-30T22:23:44.284Z,1008.3
2017-01-30T22:26:16.665Z,1008.3
2017-01-30T22:28:49.067Z,1008.3
2017-01-30T22:31:21.460Z,1008.3
2017-01-30T22:33:54.694Z,1008.3
2017-01-30T22:36:27.080Z,1008.4
2017-01-30T22:38:59.470Z,1008.4
2017-01-30T22:41:31.866Z,1008.4
2017-01-30T22:44:04.259Z,1008.4
2017-01-30T22:46:37.058Z,1008.4
2017-01-30T22:49:09.462Z,1008.4
2017-01-30T22:51:42.918Z,1008.4
2017-01-30T22:54:15.320Z,1008.5
2017-01-30T22:56:47.711Z,1008.5
2017-01-30T22:59:20.547Z,1008.5
2017-01-30T23:01:53.796Z,1008.5
2017-01-30T23:04:26.183Z,1008.5
2017-01-30T23:06:58.579Z,1008.5
2017-01-30T23:09:31.382Z,1008.5
2017-01-30T23:12:03.776Z,1008.5
2017-01-30T23:14:36.590Z,1008.5
2017-01-30T23:17:08.991Z,1008.6
2017-01-30T23:19:41.395Z,1008.6
2017-01-30T23:22:13.799Z,1008.6
2017-01-30T23:24:46.210Z,1008.6
2017-01-30T23:27:18.598Z,1008.6
2017-01-30T23:29:50.999Z,1008.6
2017-01-30T23:32:23.370Z,1008.6
2017-01-30T23:34:55.758Z,1008.6
2017-01-30T23:37:28.163Z,1008.6
2017-01-30T23:40:00.566Z,1008.6
2017-01-30T23:42:32.975Z,1008.7
2017-01-30T23:45:05.364Z,1008.7
2017-01-30T23:47:37.762Z,1008.7
2017-01-30T23:50:10.150Z,1008.7
2017-01-30T23:52:42.549Z,1008.7
2017-01-30T23:55:15.117Z,1008.7
2017-01-30T23:57:47.971Z,1008.8
